Portada
Imágenes satélite Pronóstico 10 díasClimaPredicción Marítima Ciclones Rayo AeropuertosFAQ Noticias Acerca
El tiempo : Europa África América del Norte América del Sur Asia Australia-Oceanía Otros
Idiomas Contacto

Chichén Itzá, México

Aeropuerto Internacional de Kaua

latitud: 20-38-30N, longitud: 088-26-58W, altitud: 31 m


METAR: MMCT 282142Z 10010KT 7SM OVC015 27/22 A3007 RMK 8/6// MSGTX MMMD
TAF: falta

Hora: 16:57 (22:57 UTC)

Observación

El informe se hizo hace 1 hora y 15 minutos, a las 21:42 UTC
Viento 10 kt del este
Temperatura 27°C
Humedad 74%
Presión 1018 hPa
Visibilidad: 11.3 km
Cielo cubierto a una altura de 1500 ft

Cambiar las unidades
La información que se ofrece en estas páginas está sujeta a una cláusula de exención de responsabilidad
El tiempo : Europa África América del Norte América del Sur Asia Australia-Oceanía Otros
Imágenes satélite Pronóstico 10 díasClimaPredicción Marítima Ciclones Rayo AeropuertosFAQ Idiomas Contacto Noticias Acerca